sensor_id;sensor_type;location;lat;lon;timestamp;P1;durP1;ratioP1;P2;durP2;ratioP2
65368;SDS011;51970;53.484;49.488;2023-02-14T00:00:22;5.72;;;3.05;;
65368;SDS011;51970;53.484;49.488;2023-02-14T00:02:48;11.82;;;10.18;;
65368;SDS011;51970;53.484;49.488;2023-02-14T00:05:14;7.93;;;3.63;;
65368;SDS011;51970;53.484;49.488;2023-02-14T00:07:40;5.70;;;3.08;;
65368;SDS011;51970;53.484;49.488;2023-02-14T00:10:07;5.85;;;2.75;;
65368;SDS011;51970;53.484;49.488;2023-02-14T00:12:34;7.32;;;4.45;;
65368;SDS011;51970;53.484;49.488;2023-02-14T00:15:00;7.88;;;3.30;;
65368;SDS011;51970;53.484;49.488;2023-02-14T00:17:45;6.60;;;3.97;;
65368;SDS011;51970;53.484;49.488;2023-02-14T00:20:11;6.47;;;3.28;;
65368;SDS011;51970;53.484;49.488;2023-02-14T00:22:37;8.73;;;2.83;;
65368;SDS011;51970;53.484;49.488;2023-02-14T00:25:03;5.85;;;3.25;;
65368;SDS011;51970;53.484;49.488;2023-02-14T00:27:30;6.00;;;3.08;;
65368;SDS011;51970;53.484;49.488;2023-02-14T00:29:56;6.38;;;3.70;;
65368;SDS011;51970;53.484;49.488;2023-02-14T00:32:28;7.32;;;3.92;;
65368;SDS011;51970;53.484;49.488;2023-02-14T00:34:54;7.30;;;3.17;;
65368;SDS011;51970;53.484;49.488;2023-02-14T00:37:20;7.88;;;6.85;;
65368;SDS011;51970;53.484;49.488;2023-02-14T00:39:47;5.03;;;2.35;;
65368;SDS011;51970;53.484;49.488;2023-02-14T00:42:13;6.30;;;2.83;;
65368;SDS011;51970;53.484;49.488;2023-02-14T00:44:39;7.63;;;3.38;;
65368;SDS011;51970;53.484;49.488;2023-02-14T00:47:05;6.35;;;3.00;;
65368;SDS011;51970;53.484;49.488;2023-02-14T00:49:31;5.53;;;2.85;;
65368;SDS011;51970;53.484;49.488;2023-02-14T00:51:58;6.15;;;3.75;;
65368;SDS011;51970;53.484;49.488;2023-02-14T00:54:24;8.13;;;5.85;;
65368;SDS011;51970;53.484;49.488;2023-02-14T00:56:50;5.95;;;2.65;;
65368;SDS011;51970;53.484;49.488;2023-02-14T00:59:16;5.85;;;3.20;;
65368;SDS011;51970;53.484;49.488;2023-02-14T01:01:42;8.00;;;3.65;;
65368;SDS011;51970;53.484;49.488;2023-02-14T01:04:09;6.40;;;2.78;;
65368;SDS011;51970;53.484;49.488;2023-02-14T01:06:35;5.70;;;2.78;;
65368;SDS011;51970;53.484;49.488;2023-02-14T01:09:01;7.80;;;3.80;;
65368;SDS011;51970;53.484;49.488;2023-02-14T01:11:28;7.55;;;3.17;;
65368;SDS011;51970;53.484;49.488;2023-02-14T01:13:55;6.45;;;3.88;;
65368;SDS011;51970;53.484;49.488;2023-02-14T01:16:23;9.07;;;3.63;;
65368;SDS011;51970;53.484;49.488;2023-02-14T01:18:50;6.10;;;2.80;;
65368;SDS011;51970;53.484;49.488;2023-02-14T01:21:21;8.38;;;6.22;;
65368;SDS011;51970;53.484;49.488;2023-02-14T01:23:50;7.38;;;5.30;;
65368;SDS011;51970;53.484;49.488;2023-02-14T01:26:18;5.60;;;3.55;;
65368;SDS011;51970;53.484;49.488;2023-02-14T01:28:45;7.85;;;2.85;;
65368;SDS011;51970;53.484;49.488;2023-02-14T01:31:13;8.57;;;2.97;;
65368;SDS011;51970;53.484;49.488;2023-02-14T01:33:44;6.93;;;3.33;;
65368;SDS011;51970;53.484;49.488;2023-02-14T01:36:19;6.03;;;2.75;;
65368;SDS011;51970;53.484;49.488;2023-02-14T01:38:54;7.32;;;3.42;;
65368;SDS011;51970;53.484;49.488;2023-02-14T01:41:23;6.47;;;3.85;;
65368;SDS011;51970;53.484;49.488;2023-02-14T01:46:20;7.15;;;3.53;;
65368;SDS011;51970;53.484;49.488;2023-02-14T01:48:46;5.88;;;2.85;;
65368;SDS011;51970;53.484;49.488;2023-02-14T01:51:14;7.97;;;4.15;;
65368;SDS011;51970;53.484;49.488;2023-02-14T01:53:43;6.65;;;2.80;;
65368;SDS011;51970;53.484;49.488;2023-02-14T01:56:11;7.00;;;3.05;;
65368;SDS011;51970;53.484;49.488;2023-02-14T01:58:41;6.15;;;2.55;;
65368;SDS011;51970;53.484;49.488;2023-02-14T02:01:12;6.95;;;3.33;;
65368;SDS011;51970;53.484;49.488;2023-02-14T02:11:43;8.27;;;4.40;;
65368;SDS011;51970;53.484;49.488;2023-02-14T02:14:14;5.97;;;2.85;;
65368;SDS011;51970;53.484;49.488;2023-02-14T02:16:49;6.50;;;3.33;;
65368;SDS011;51970;53.484;49.488;2023-02-14T02:22:41;6.88;;;3.35;;
65368;SDS011;51970;53.484;49.488;2023-02-14T02:25:30;6.53;;;3.20;;
65368;SDS011;51970;53.484;49.488;2023-02-14T02:44:46;7.15;;;3.08;;
65368;SDS011;51970;53.484;49.488;2023-02-14T02:47:25;7.95;;;4.22;;
65368;SDS011;51970;53.484;49.488;2023-02-14T02:52:58;8.18;;;4.28;;
65368;SDS011;51970;53.484;49.488;2023-02-14T02:58:36;7.53;;;3.55;;
65368;SDS011;51970;53.484;49.488;2023-02-14T03:01:35;6.03;;;3.22;;
65368;SDS011;51970;53.484;49.488;2023-02-14T03:04:06;9.45;;;4.10;;
65368;SDS011;51970;53.484;49.488;2023-02-14T03:06:55;6.75;;;3.67;;
65368;SDS011;51970;53.484;49.488;2023-02-14T03:11:54;9.23;;;3.55;;
65368;SDS011;51970;53.484;49.488;2023-02-14T03:17:14;7.03;;;3.38;;
65368;SDS011;51970;53.484;49.488;2023-02-14T03:20:08;5.47;;;3.08;;
65368;SDS011;51970;53.484;49.488;2023-02-14T03:28:37;31.75;;;10.75;;
65368;SDS011;51970;53.484;49.488;2023-02-14T03:36:40;16.67;;;8.25;;
65368;SDS011;51970;53.484;49.488;2023-02-14T03:42:11;14.40;;;8.98;;
65368;SDS011;51970;53.484;49.488;2023-02-14T03:44:46;14.48;;;5.90;;
65368;SDS011;51970;53.484;49.488;2023-02-14T03:47:21;9.23;;;4.93;;
65368;SDS011;51970;53.484;49.488;2023-02-14T03:49:55;8.88;;;4.70;;
65368;SDS011;51970;53.484;49.488;2023-02-14T03:52:27;8.32;;;3.92;;
65368;SDS011;51970;53.484;49.488;2023-02-14T03:54:58;8.98;;;4.50;;
65368;SDS011;51970;53.484;49.488;2023-02-14T03:57:31;7.78;;;4.07;;
65368;SDS011;51970;53.484;49.488;2023-02-14T04:00:22;8.05;;;4.03;;
65368;SDS011;51970;53.484;49.488;2023-02-14T04:02:59;8.82;;;4.07;;
65368;SDS011;51970;53.484;49.488;2023-02-14T04:05:32;10.50;;;8.35;;
65368;SDS011;51970;53.484;49.488;2023-02-14T04:07:59;9.13;;;5.78;;
65368;SDS011;51970;53.484;49.488;2023-02-14T04:10:25;6.35;;;2.97;;
65368;SDS011;51970;53.484;49.488;2023-02-14T04:13:04;10.40;;;4.68;;
65368;SDS011;51970;53.484;49.488;2023-02-14T04:15:30;7.82;;;3.58;;
65368;SDS011;51970;53.484;49.488;2023-02-14T04:17:58;8.80;;;4.50;;
65368;SDS011;51970;53.484;49.488;2023-02-14T04:20:43;9.27;;;8.18;;
65368;SDS011;51970;53.484;49.488;2023-02-14T04:23:09;9.75;;;5.75;;
65368;SDS011;51970;53.484;49.488;2023-02-14T04:25:36;8.27;;;4.22;;
65368;SDS011;51970;53.484;49.488;2023-02-14T04:28:04;8.13;;;3.78;;
65368;SDS011;51970;53.484;49.488;2023-02-14T04:30:32;7.13;;;2.95;;
65368;SDS011;51970;53.484;49.488;2023-02-14T04:32:59;7.60;;;4.25;;
65368;SDS011;51970;53.484;49.488;2023-02-14T04:35:25;10.13;;;3.88;;
65368;SDS011;51970;53.484;49.488;2023-02-14T04:37:51;9.82;;;5.00;;
65368;SDS011;51970;53.484;49.488;2023-02-14T04:40:17;8.45;;;3.97;;
65368;SDS011;51970;53.484;49.488;2023-02-14T04:42:44;7.82;;;3.95;;
65368;SDS011;51970;53.484;49.488;2023-02-14T04:45:11;9.73;;;3.92;;
65368;SDS011;51970;53.484;49.488;2023-02-14T04:47:37;8.13;;;3.92;;
65368;SDS011;51970;53.484;49.488;2023-02-14T04:50:04;10.18;;;4.70;;
65368;SDS011;51970;53.484;49.488;2023-02-14T04:52:31;14.90;;;4.70;;
65368;SDS011;51970;53.484;49.488;2023-02-14T04:54:57;8.63;;;4.10;;
65368;SDS011;51970;53.484;49.488;2023-02-14T04:57:24;7.00;;;3.55;;
65368;SDS011;51970;53.484;49.488;2023-02-14T04:59:50;9.57;;;4.45;;
65368;SDS011;51970;53.484;49.488;2023-02-14T05:02:16;9.65;;;4.80;;
65368;SDS011;51970;53.484;49.488;2023-02-14T05:04:42;7.18;;;3.88;;
65368;SDS011;51970;53.484;49.488;2023-02-14T05:07:08;7.78;;;4.30;;
65368;SDS011;51970;53.484;49.488;2023-02-14T05:09:35;7.32;;;3.63;;
65368;SDS011;51970;53.484;49.488;2023-02-14T05:12:01;8.80;;;4.15;;
65368;SDS011;51970;53.484;49.488;2023-02-14T05:14:27;9.43;;;5.07;;
65368;SDS011;51970;53.484;49.488;2023-02-14T05:16:53;8.20;;;3.97;;
65368;SDS011;51970;53.484;49.488;2023-02-14T05:19:19;18.40;;;4.38;;
65368;SDS011;51970;53.484;49.488;2023-02-14T05:21:45;7.28;;;3.65;;
65368;SDS011;51970;53.484;49.488;2023-02-14T05:24:12;8.93;;;4.25;;
65368;SDS011;51970;53.484;49.488;2023-02-14T05:26:40;7.65;;;4.03;;
65368;SDS011;51970;53.484;49.488;2023-02-14T05:29:06;8.57;;;4.10;;
65368;SDS011;51970;53.484;49.488;2023-02-14T05:31:32;13.45;;;4.15;;
65368;SDS011;51970;53.484;49.488;2023-02-14T05:33:59;7.95;;;3.80;;
65368;SDS011;51970;53.484;49.488;2023-02-14T05:36:25;8.93;;;4.57;;
65368;SDS011;51970;53.484;49.488;2023-02-14T05:38:51;9.15;;;4.00;;
65368;SDS011;51970;53.484;49.488;2023-02-14T05:41:17;7.70;;;4.75;;
65368;SDS011;51970;53.484;49.488;2023-02-14T05:43:43;7.90;;;4.22;;
65368;SDS011;51970;53.484;49.488;2023-02-14T05:46:10;10.20;;;4.97;;
65368;SDS011;51970;53.484;49.488;2023-02-14T05:48:36;9.25;;;4.20;;
65368;SDS011;51970;53.484;49.488;2023-02-14T05:51:05;6.95;;;3.90;;
65368;SDS011;51970;53.484;49.488;2023-02-14T05:53:33;11.68;;;3.63;;
65368;SDS011;51970;53.484;49.488;2023-02-14T05:56:00;6.68;;;2.70;;
65368;SDS011;51970;53.484;49.488;2023-02-14T05:58:26;7.15;;;3.00;;
65368;SDS011;51970;53.484;49.488;2023-02-14T06:00:52;6.88;;;3.17;;
65368;SDS011;51970;53.484;49.488;2023-02-14T06:03:18;10.20;;;4.10;;
65368;SDS011;51970;53.484;49.488;2023-02-14T06:05:44;9.63;;;3.47;;
65368;SDS011;51970;53.484;49.488;2023-02-14T06:08:10;7.15;;;3.08;;
65368;SDS011;51970;53.484;49.488;2023-02-14T06:10:38;9.45;;;3.58;;
65368;SDS011;51970;53.484;49.488;2023-02-14T06:13:05;7.15;;;3.63;;
65368;SDS011;51970;53.484;49.488;2023-02-14T06:15:33;7.15;;;3.67;;
65368;SDS011;51970;53.484;49.488;2023-02-14T06:18:00;6.97;;;3.25;;
65368;SDS011;51970;53.484;49.488;2023-02-14T06:20:26;6.95;;;3.17;;
65368;SDS011;51970;53.484;49.488;2023-02-14T06:22:54;7.05;;;3.75;;
65368;SDS011;51970;53.484;49.488;2023-02-14T06:25:20;8.50;;;4.55;;
65368;SDS011;51970;53.484;49.488;2023-02-14T06:27:47;9.45;;;4.38;;
65368;SDS011;51970;53.484;49.488;2023-02-14T06:30:14;6.90;;;3.38;;
65368;SDS011;51970;53.484;49.488;2023-02-14T06:32:41;12.32;;;4.00;;
65368;SDS011;51970;53.484;49.488;2023-02-14T06:35:07;8.65;;;3.17;;
65368;SDS011;51970;53.484;49.488;2023-02-14T06:37:33;7.60;;;3.88;;
65368;SDS011;51970;53.484;49.488;2023-02-14T06:39:59;8.60;;;3.70;;
65368;SDS011;51970;53.484;49.488;2023-02-14T06:42:29;10.75;;;4.20;;
65368;SDS011;51970;53.484;49.488;2023-02-14T06:44:56;8.80;;;4.28;;
65368;SDS011;51970;53.484;49.488;2023-02-14T06:47:22;9.48;;;4.47;;
65368;SDS011;51970;53.484;49.488;2023-02-14T06:49:48;10.00;;;7.18;;
65368;SDS011;51970;53.484;49.488;2023-02-14T06:52:18;6.63;;;3.15;;
65368;SDS011;51970;53.484;49.488;2023-02-14T06:54:48;9.15;;;4.80;;
65368;SDS011;51970;53.484;49.488;2023-02-14T06:57:15;6.10;;;3.40;;
65368;SDS011;51970;53.484;49.488;2023-02-14T06:59:41;6.72;;;3.63;;
65368;SDS011;51970;53.484;49.488;2023-02-14T07:02:09;6.80;;;3.17;;
65368;SDS011;51970;53.484;49.488;2023-02-14T07:04:36;6.75;;;3.25;;
65368;SDS011;51970;53.484;49.488;2023-02-14T07:07:03;6.03;;;3.08;;
65368;SDS011;51970;53.484;49.488;2023-02-14T07:09:29;7.38;;;4.07;;
65368;SDS011;51970;53.484;49.488;2023-02-14T07:11:56;7.03;;;3.28;;
65368;SDS011;51970;53.484;49.488;2023-02-14T07:14:22;10.77;;;3.85;;
65368;SDS011;51970;53.484;49.488;2023-02-14T07:16:48;8.60;;;3.70;;
65368;SDS011;51970;53.484;49.488;2023-02-14T07:19:17;8.02;;;4.07;;
65368;SDS011;51970;53.484;49.488;2023-02-14T07:21:45;7.63;;;3.47;;
65368;SDS011;51970;53.484;49.488;2023-02-14T07:24:12;6.18;;;3.40;;
65368;SDS011;51970;53.484;49.488;2023-02-14T07:26:41;7.32;;;3.47;;
65368;SDS011;51970;53.484;49.488;2023-02-14T07:29:10;7.50;;;3.42;;
65368;SDS011;51970;53.484;49.488;2023-02-14T07:31:37;12.00;;;4.82;;
65368;SDS011;51970;53.484;49.488;2023-02-14T07:34:03;9.40;;;4.25;;
65368;SDS011;51970;53.484;49.488;2023-02-14T07:36:30;8.85;;;4.13;;
65368;SDS011;51970;53.484;49.488;2023-02-14T07:39:01;10.65;;;4.45;;
65368;SDS011;51970;53.484;49.488;2023-02-14T07:41:28;8.05;;;3.67;;
65368;SDS011;51970;53.484;49.488;2023-02-14T07:43:54;9.10;;;3.90;;
65368;SDS011;51970;53.484;49.488;2023-02-14T07:46:25;7.18;;;4.25;;
65368;SDS011;51970;53.484;49.488;2023-02-14T07:48:53;8.77;;;3.78;;
65368;SDS011;51970;53.484;49.488;2023-02-14T07:51:22;9.38;;;6.78;;
65368;SDS011;51970;53.484;49.488;2023-02-14T07:53:57;7.75;;;3.92;;
65368;SDS011;51970;53.484;49.488;2023-02-14T07:56:29;9.90;;;4.70;;
65368;SDS011;51970;53.484;49.488;2023-02-14T07:58:57;9.10;;;4.50;;
65368;SDS011;51970;53.484;49.488;2023-02-14T08:01:26;9.27;;;5.35;;
65368;SDS011;51970;53.484;49.488;2023-02-14T08:03:53;9.90;;;4.05;;
65368;SDS011;51970;53.484;49.488;2023-02-14T08:06:31;10.50;;;4.60;;
65368;SDS011;51970;53.484;49.488;2023-02-14T08:08:58;17.23;;;8.32;;
65368;SDS011;51970;53.484;49.488;2023-02-14T08:11:26;10.15;;;4.43;;
65368;SDS011;51970;53.484;49.488;2023-02-14T08:14:14;8.80;;;4.68;;
65368;SDS011;51970;53.484;49.488;2023-02-14T08:17:05;8.50;;;4.43;;
65368;SDS011;51970;53.484;49.488;2023-02-14T08:19:32;13.68;;;4.03;;
65368;SDS011;51970;53.484;49.488;2023-02-14T08:21:58;9.43;;;4.47;;
65368;SDS011;51970;53.484;49.488;2023-02-14T08:24:25;9.48;;;4.53;;
65368;SDS011;51970;53.484;49.488;2023-02-14T08:26:53;9.35;;;4.22;;
65368;SDS011;51970;53.484;49.488;2023-02-14T08:29:21;8.38;;;4.60;;
65368;SDS011;51970;53.484;49.488;2023-02-14T08:31:47;8.45;;;4.25;;
65368;SDS011;51970;53.484;49.488;2023-02-14T08:34:14;9.50;;;5.35;;
65368;SDS011;51970;53.484;49.488;2023-02-14T08:36:41;11.25;;;4.72;;
65368;SDS011;51970;53.484;49.488;2023-02-14T08:39:08;9.75;;;5.30;;
65368;SDS011;51970;53.484;49.488;2023-02-14T08:41:34;9.75;;;5.00;;
65368;SDS011;51970;53.484;49.488;2023-02-14T08:44:01;9.02;;;4.35;;
65368;SDS011;51970;53.484;49.488;2023-02-14T08:46:27;10.55;;;5.80;;
65368;SDS011;51970;53.484;49.488;2023-02-14T08:48:54;10.98;;;4.57;;
65368;SDS011;51970;53.484;49.488;2023-02-14T08:51:22;11.43;;;9.65;;
65368;SDS011;51970;53.484;49.488;2023-02-14T08:53:50;8.88;;;3.70;;
65368;SDS011;51970;53.484;49.488;2023-02-14T08:56:17;9.52;;;4.65;;
65368;SDS011;51970;53.484;49.488;2023-02-14T08:58:45;13.75;;;4.55;;
65368;SDS011;51970;53.484;49.488;2023-02-14T09:01:14;7.90;;;3.97;;
65368;SDS011;51970;53.484;49.488;2023-02-14T09:03:44;8.77;;;4.55;;
65368;SDS011;51970;53.484;49.488;2023-02-14T09:06:12;15.18;;;7.18;;
65368;SDS011;51970;53.484;49.488;2023-02-14T09:08:49;10.50;;;7.90;;
65368;SDS011;51970;53.484;49.488;2023-02-14T09:11:20;8.80;;;5.00;;
65368;SDS011;51970;53.484;49.488;2023-02-14T09:13:50;8.82;;;4.28;;
65368;SDS011;51970;53.484;49.488;2023-02-14T09:16:22;11.43;;;4.50;;
65368;SDS011;51970;53.484;49.488;2023-02-14T09:18:50;8.68;;;5.20;;
65368;SDS011;51970;53.484;49.488;2023-02-14T09:21:43;9.13;;;4.90;;
65368;SDS011;51970;53.484;49.488;2023-02-14T09:24:09;11.20;;;4.95;;
65368;SDS011;51970;53.484;49.488;2023-02-14T09:26:35;10.40;;;5.78;;
65368;SDS011;51970;53.484;49.488;2023-02-14T09:29:06;10.48;;;5.65;;
65368;SDS011;51970;53.484;49.488;2023-02-14T09:31:35;10.23;;;8.25;;
65368;SDS011;51970;53.484;49.488;2023-02-14T09:34:02;9.95;;;5.05;;
65368;SDS011;51970;53.484;49.488;2023-02-14T09:36:29;11.38;;;8.77;;
65368;SDS011;51970;53.484;49.488;2023-02-14T09:38:55;9.80;;;5.05;;
65368;SDS011;51970;53.484;49.488;2023-02-14T09:47:03;9.90;;;5.20;;
65368;SDS011;51970;53.484;49.488;2023-02-14T09:49:40;10.77;;;4.68;;
65368;SDS011;51970;53.484;49.488;2023-02-14T09:52:10;11.23;;;6.25;;
65368;SDS011;51970;53.484;49.488;2023-02-14T09:54:39;10.73;;;4.85;;
65368;SDS011;51970;53.484;49.488;2023-02-14T10:08:50;8.98;;;4.53;;
65368;SDS011;51970;53.484;49.488;2023-02-14T10:11:26;10.02;;;4.60;;
65368;SDS011;51970;53.484;49.488;2023-02-14T10:14:24;8.45;;;3.65;;
65368;SDS011;51970;53.484;49.488;2023-02-14T10:20:34;9.50;;;4.95;;
65368;SDS011;51970;53.484;49.488;2023-02-14T10:23:44;8.30;;;4.60;;
65368;SDS011;51970;53.484;49.488;2023-02-14T10:26:26;9.23;;;4.78;;
65368;SDS011;51970;53.484;49.488;2023-02-14T10:29:27;13.02;;;9.75;;
65368;SDS011;51970;53.484;49.488;2023-02-14T10:32:22;9.45;;;5.25;;
65368;SDS011;51970;53.484;49.488;2023-02-14T10:48:38;8.88;;;4.47;;
65368;SDS011;51970;53.484;49.488;2023-02-14T10:52:11;12.98;;;4.53;;
65368;SDS011;51970;53.484;49.488;2023-02-14T11:01:51;10.88;;;4.07;;
65368;SDS011;51970;53.484;49.488;2023-02-14T11:04:33;11.30;;;4.35;;
65368;SDS011;51970;53.484;49.488;2023-02-14T11:08:21;7.78;;;4.20;;
65368;SDS011;51970;53.484;49.488;2023-02-14T11:12:11;7.47;;;3.30;;
65368;SDS011;51970;53.484;49.488;2023-02-14T11:22:11;7.45;;;3.63;;
65368;SDS011;51970;53.484;49.488;2023-02-14T11:25:29;12.07;;;5.47;;
65368;SDS011;51970;53.484;49.488;2023-02-14T11:32:55;25.92;;;8.90;;
65368;SDS011;51970;53.484;49.488;2023-02-14T11:36:11;10.15;;;4.65;;
65368;SDS011;51970;53.484;49.488;2023-02-14T11:39:34;7.85;;;3.72;;
65368;SDS011;51970;53.484;49.488;2023-02-14T11:45:29;10.93;;;4.93;;
65368;SDS011;51970;53.484;49.488;2023-02-14T11:51:26;12.23;;;10.27;;
65368;SDS011;51970;53.484;49.488;2023-02-14T11:53:51;9.27;;;3.53;;
65368;SDS011;51970;53.484;49.488;2023-02-14T11:56:21;8.27;;;4.55;;
65368;SDS011;51970;53.484;49.488;2023-02-14T11:58:55;9.45;;;4.40;;
65368;SDS011;51970;53.484;49.488;2023-02-14T12:01:29;10.13;;;6.15;;
65368;SDS011;51970;53.484;49.488;2023-02-14T12:04:16;12.45;;;4.75;;
65368;SDS011;51970;53.484;49.488;2023-02-14T12:06:47;19.60;;;6.78;;
65368;SDS011;51970;53.484;49.488;2023-02-14T12:11:55;10.90;;;4.45;;
65368;SDS011;51970;53.484;49.488;2023-02-14T12:14:27;7.68;;;3.67;;
65368;SDS011;51970;53.484;49.488;2023-02-14T12:17:06;13.52;;;6.35;;
65368;SDS011;51970;53.484;49.488;2023-02-14T12:19:58;9.52;;;5.07;;
65368;SDS011;51970;53.484;49.488;2023-02-14T12:22:49;17.23;;;6.85;;
65368;SDS011;51970;53.484;49.488;2023-02-14T12:25:32;16.15;;;7.53;;
65368;SDS011;51970;53.484;49.488;2023-02-14T12:28:11;66.30;;;21.10;;
65368;SDS011;51970;53.484;49.488;2023-02-14T12:30:53;79.72;;;23.50;;
65368;SDS011;51970;53.484;49.488;2023-02-14T12:33:23;52.20;;;15.40;;
65368;SDS011;51970;53.484;49.488;2023-02-14T12:45:03;21.15;;;5.72;;
65368;SDS011;51970;53.484;49.488;2023-02-14T12:51:28;13.52;;;6.80;;
65368;SDS011;51970;53.484;49.488;2023-02-14T13:10:55;28.58;;;10.30;;
65368;SDS011;51970;53.484;49.488;2023-02-14T13:22:07;17.17;;;8.02;;
65368;SDS011;51970;53.484;49.488;2023-02-14T13:24:43;21.17;;;7.35;;
65368;SDS011;51970;53.484;49.488;2023-02-14T13:27:23;27.98;;;8.80;;
65368;SDS011;51970;53.484;49.488;2023-02-14T13:30:06;15.68;;;6.95;;
65368;SDS011;51970;53.484;49.488;2023-02-14T13:33:02;67.85;;;17.00;;
65368;SDS011;51970;53.484;49.488;2023-02-14T13:35:56;66.35;;;18.30;;
65368;SDS011;51970;53.484;49.488;2023-02-14T13:38:28;48.63;;;13.45;;
65368;SDS011;51970;53.484;49.488;2023-02-14T13:40:56;12.27;;;5.55;;
65368;SDS011;51970;53.484;49.488;2023-02-14T13:46:13;15.15;;;5.82;;
65368;SDS011;51970;53.484;49.488;2023-02-14T13:48:43;18.58;;;6.57;;
65368;SDS011;51970;53.484;49.488;2023-02-14T13:51:21;15.98;;;6.28;;
65368;SDS011;51970;53.484;49.488;2023-02-14T13:54:20;38.88;;;10.40;;
65368;SDS011;51970;53.484;49.488;2023-02-14T13:56:56;8.60;;;3.53;;
65368;SDS011;51970;53.484;49.488;2023-02-14T13:59:42;19.48;;;6.53;;
65368;SDS011;51970;53.484;49.488;2023-02-14T14:10:48;13.88;;;4.10;;
65368;SDS011;51970;53.484;49.488;2023-02-14T14:18:51;11.18;;;4.60;;
65368;SDS011;51970;53.484;49.488;2023-02-14T14:21:28;12.48;;;5.63;;
65368;SDS011;51970;53.484;49.488;2023-02-14T14:26:56;33.50;;;10.35;;
65368;SDS011;51970;53.484;49.488;2023-02-14T14:29:36;9.98;;;5.07;;
65368;SDS011;51970;53.484;49.488;2023-02-14T14:32:09;27.55;;;8.27;;
65368;SDS011;51970;53.484;49.488;2023-02-14T14:34:50;12.07;;;6.22;;
65368;SDS011;51970;53.484;49.488;2023-02-14T14:37:22;40.85;;;9.23;;
65368;SDS011;51970;53.484;49.488;2023-02-14T14:39:56;55.28;;;10.93;;
65368;SDS011;51970;53.484;49.488;2023-02-14T14:42:24;29.13;;;5.85;;
65368;SDS011;51970;53.484;49.488;2023-02-14T14:44:55;24.40;;;6.72;;
65368;SDS011;51970;53.484;49.488;2023-02-14T14:47:24;51.88;;;9.52;;
65368;SDS011;51970;53.484;49.488;2023-02-14T14:50:02;37.53;;;6.47;;
65368;SDS011;51970;53.484;49.488;2023-02-14T14:52:34;23.33;;;6.05;;
65368;SDS011;51970;53.484;49.488;2023-02-14T14:55:05;32.88;;;8.48;;
65368;SDS011;51970;53.484;49.488;2023-02-14T14:57:54;24.42;;;5.50;;
65368;SDS011;51970;53.484;49.488;2023-02-14T15:00:34;34.45;;;8.57;;
65368;SDS011;51970;53.484;49.488;2023-02-14T15:03:14;11.20;;;4.18;;
65368;SDS011;51970;53.484;49.488;2023-02-14T15:05:45;7.85;;;3.75;;
65368;SDS011;51970;53.484;49.488;2023-02-14T15:10:59;27.30;;;7.18;;
65368;SDS011;51970;53.484;49.488;2023-02-14T15:13:41;24.48;;;8.82;;
65368;SDS011;51970;53.484;49.488;2023-02-14T15:16:21;48.95;;;8.68;;
65368;SDS011;51970;53.484;49.488;2023-02-14T15:18:55;22.88;;;5.55;;
65368;SDS011;51970;53.484;49.488;2023-02-14T15:21:25;20.90;;;7.43;;
65368;SDS011;51970;53.484;49.488;2023-02-14T15:23:53;13.38;;;4.47;;
65368;SDS011;51970;53.484;49.488;2023-02-14T15:26:40;7.25;;;3.00;;
65368;SDS011;51970;53.484;49.488;2023-02-14T15:29:19;24.65;;;6.05;;
65368;SDS011;51970;53.484;49.488;2023-02-14T15:31:53;11.63;;;3.85;;
65368;SDS011;51970;53.484;49.488;2023-02-14T15:34:23;15.73;;;5.95;;
65368;SDS011;51970;53.484;49.488;2023-02-14T15:37:03;13.93;;;5.32;;
65368;SDS011;51970;53.484;49.488;2023-02-14T15:40:03;15.93;;;4.93;;
65368;SDS011;51970;53.484;49.488;2023-02-14T15:42:33;14.02;;;7.25;;
65368;SDS011;51970;53.484;49.488;2023-02-14T15:48:03;12.88;;;3.53;;
65368;SDS011;51970;53.484;49.488;2023-02-14T15:50:41;22.85;;;5.95;;
65368;SDS011;51970;53.484;49.488;2023-02-14T15:53:34;18.23;;;4.72;;
65368;SDS011;51970;53.484;49.488;2023-02-14T15:58:46;18.48;;;4.80;;
65368;SDS011;51970;53.484;49.488;2023-02-14T16:01:13;10.85;;;3.72;;
65368;SDS011;51970;53.484;49.488;2023-02-14T16:06:28;5.00;;;1.98;;
65368;SDS011;51970;53.484;49.488;2023-02-14T16:08:59;9.63;;;4.10;;
65368;SDS011;51970;53.484;49.488;2023-02-14T16:11:32;14.32;;;4.93;;
65368;SDS011;51970;53.484;49.488;2023-02-14T16:17:14;8.80;;;3.88;;
65368;SDS011;51970;53.484;49.488;2023-02-14T16:20:17;19.92;;;7.05;;
65368;SDS011;51970;53.484;49.488;2023-02-14T16:23:14;17.45;;;4.78;;
65368;SDS011;51970;53.484;49.488;2023-02-14T16:25:57;26.20;;;5.72;;
65368;SDS011;51970;53.484;49.488;2023-02-14T16:28:26;16.63;;;5.43;;
65368;SDS011;51970;53.484;49.488;2023-02-14T16:30:54;21.73;;;5.82;;
65368;SDS011;51970;53.484;49.488;2023-02-14T16:33:23;18.60;;;5.38;;
65368;SDS011;51970;53.484;49.488;2023-02-14T16:35:53;18.73;;;4.82;;
65368;SDS011;51970;53.484;49.488;2023-02-14T16:38:44;9.50;;;3.45;;
65368;SDS011;51970;53.484;49.488;2023-02-14T16:41:24;13.15;;;4.07;;
65368;SDS011;51970;53.484;49.488;2023-02-14T16:44:18;33.08;;;7.28;;
65368;SDS011;51970;53.484;49.488;2023-02-14T16:46:45;42.33;;;11.18;;
65368;SDS011;51970;53.484;49.488;2023-02-14T16:49:13;47.30;;;10.82;;
65368;SDS011;51970;53.484;49.488;2023-02-14T16:51:41;12.20;;;4.97;;
65368;SDS011;51970;53.484;49.488;2023-02-14T16:54:17;26.60;;;6.45;;
65368;SDS011;51970;53.484;49.488;2023-02-14T16:59:22;48.67;;;10.93;;
65368;SDS011;51970;53.484;49.488;2023-02-14T17:01:52;40.42;;;7.70;;
65368;SDS011;51970;53.484;49.488;2023-02-14T17:04:19;12.63;;;3.65;;
65368;SDS011;51970;53.484;49.488;2023-02-14T17:06:54;8.63;;;3.38;;
65368;SDS011;51970;53.484;49.488;2023-02-14T17:09:26;11.20;;;3.53;;
65368;SDS011;51970;53.484;49.488;2023-02-14T17:11:59;28.88;;;6.38;;
65368;SDS011;51970;53.484;49.488;2023-02-14T17:14:29;37.63;;;10.25;;
65368;SDS011;51970;53.484;49.488;2023-02-14T17:17:00;12.45;;;3.67;;
65368;SDS011;51970;53.484;49.488;2023-02-14T17:19:30;6.05;;;2.95;;
65368;SDS011;51970;53.484;49.488;2023-02-14T17:21:57;6.70;;;3.53;;
65368;SDS011;51970;53.484;49.488;2023-02-14T17:24:25;38.88;;;6.18;;
65368;SDS011;51970;53.484;49.488;2023-02-14T17:26:51;16.27;;;4.22;;
65368;SDS011;51970;53.484;49.488;2023-02-14T17:29:34;40.00;;;6.10;;
65368;SDS011;51970;53.484;49.488;2023-02-14T17:32:02;34.30;;;10.02;;
65368;SDS011;51970;53.484;49.488;2023-02-14T17:34:38;19.67;;;9.52;;
65368;SDS011;51970;53.484;49.488;2023-02-14T17:37:07;13.68;;;3.80;;
65368;SDS011;51970;53.484;49.488;2023-02-14T17:39:33;9.93;;;3.22;;
65368;SDS011;51970;53.484;49.488;2023-02-14T17:42:00;28.88;;;7.35;;
65368;SDS011;51970;53.484;49.488;2023-02-14T17:44:26;18.15;;;5.63;;
65368;SDS011;51970;53.484;49.488;2023-02-14T17:46:54;19.70;;;5.05;;
65368;SDS011;51970;53.484;49.488;2023-02-14T17:49:22;12.60;;;4.40;;
65368;SDS011;51970;53.484;49.488;2023-02-14T17:51:48;32.20;;;11.60;;
65368;SDS011;51970;53.484;49.488;2023-02-14T17:54:14;11.25;;;5.38;;
65368;SDS011;51970;53.484;49.488;2023-02-14T17:56:42;29.10;;;7.40;;
65368;SDS011;51970;53.484;49.488;2023-02-14T17:59:09;21.48;;;6.85;;
65368;SDS011;51970;53.484;49.488;2023-02-14T18:01:35;28.17;;;5.57;;
65368;SDS011;51970;53.484;49.488;2023-02-14T18:04:01;27.75;;;7.07;;
65368;SDS011;51970;53.484;49.488;2023-02-14T18:06:31;40.38;;;8.05;;
65368;SDS011;51970;53.484;49.488;2023-02-14T18:08:59;29.80;;;8.30;;
65368;SDS011;51970;53.484;49.488;2023-02-14T18:11:29;36.53;;;7.15;;
65368;SDS011;51970;53.484;49.488;2023-02-14T18:13:57;19.30;;;5.57;;